Flight Track Log - Related Links

Times and Time Zones

All times are in EDT time to prevent confusion due to time zone crossing. See the FLG3898 flight status page for this flight to view local times or setup timezone preferences in your user account.

Time Position Orientation Groundspeed Altitude Reporting Facility
EDT Latitude Longitude Course Direction KTS MPH feet Rate Location/Type
Sun 09:35:20 AM 42.0958 -85.3675 173° South 387 445 18,300  Level Chicago Center
Sun 09:38:20 AM 41.7833 -85.3144 172° South 405 466 21,000 244 Climbing Chicago Center
Sun 09:46:23 AM 40.7969 -85.1386 167° South 433 498 21,000  Level Indianapolis Center
Sun 09:47:23 AM 40.6683 -85.1003 168° South 433 498 21,000  Level Indianapolis Center
Sun 09:48:23 AM 40.5519 -85.0675 167° South 438 504 21,000  Level Indianapolis Center
Sun 09:49:23 AM 40.4294 -85.0294 169° South 438 504 21,000 -1,050 Level Indianapolis Center
Sun 09:50:23 AM 40.3111 -84.9997 166° South 443 510 18,900 -2,350 Descending Indianapolis Center
Sun 09:51:23 AM 40.2031 -84.9650 171° South 423 487 16,300 -2,507 Descending Indianapolis Center
Sun 09:52:37 AM 40.0658 -84.9350 163° South 397 457 13,300 -2,400 Descending Indianapolis Center
Sun 09:53:23 AM 39.9892 -84.9036 168° South 396 456 11,500 -1,528 Descending Indianapolis Center
Sun 09:54:23 AM 39.9019 -84.8803 168° South 376 433 10,600 -750 Descending Indianapolis Center
Sun 09:55:23 AM 39.8103 -84.8542 188° South 350 403 10,000 -300 Descending Indianapolis Center
Sun 09:56:23 AM 39.7183 -84.8714 174° South 343 395 10,000 -250 Level Indianapolis Center
Sun 09:57:23 AM 39.6436 -84.8619 142° Southeast 303 349 9,500 -500 Descending Indianapolis Center
Sun 09:58:23 AM 39.5775 -84.7961 146° Southeast 277 319 9,000 -600 Descending Indianapolis Center
Sun 09:59:23 AM 39.5094 -84.7358 152° Southeast 295 339 8,300 -850 Descending Indianapolis Center
Sun 10:00:23 AM 39.4411 -84.6889 156° South 287 330 7,300 -1,050 Descending Indianapolis Center
Sun 10:01:23 AM 39.3706 -84.6475 181° South 280 322 6,200 -1,078 Descending Indianapolis Center
Sun 10:02:31 AM 39.2833 -84.6500 180° South 246 283 5,000 -1,031 Descending Cincinnati TRACON
Sun 10:03:31 AM 39.2167 -84.6500 180° South 228 262 4,000 -1,000 Descending Cincinnati TRACON
Sun 10:04:31 AM 39.1667 -84.6500 180° South 193 222 3,000 -950 Descending Cincinnati TRACON
Sun 10:05:31 AM 39.1167 -84.6500 180° South 169 194 2,100 -783 Descending Cincinnati TRACON
Sun 10:06:49 AM 39.0667 -84.6500 180° South 143 165 1,200 -692 Descending Cincinnati TRACON

Login

Don't have an account? Register now (free) for customized features, flight alerts, and more!